| time (UTC) | temp C | wind direction | speed KPH | gust KPH | rain 1hr cm | rain 24hr cm | rain mn cm | humidity % | barometer mb |
| 20260503212014 | 26 | 94 | 1.6 | 12.9 | 0.00 | 0.00 | 0.00 | 48 | 1011.3 |
| 20260503211530 | 26 | 228 | 3.2 | 12.9 | 0.00 | 0.00 | 0.00 | 46 | 1011.4 |
| 20260503211013 | 26 | 174 | 1.6 | 6.4 | 0.00 | 0.00 | 0.00 | 47 | 1011.5 |
| 20260503210510 | 26 | 190 | 3.2 | 6.4 | 0.00 | 0.00 | 0.00 | 47 | 1011.5 |
| 20260503210031 | 26 | 0 | 1.6 | 6.4 | 0.00 | 0.00 | 0.00 | 48 | 1011.6 |
| 20260503205509 | 26 | 194 | 3.2 | 6.4 | 0.00 | 0.00 | 0.00 | 47 | 1011.7 |
| 20260503205011 | 26 | 0 | 1.6 | 9.7 | 0.00 | 0.00 | 0.00 | 50 | 1011.7 |
| 20260503204530 | 26 | 196 | 3.2 | 9.7 | 0.00 | 0.00 | 0.00 | 49 | 1011.8 |
| 20260503204013 | 25 | 195 | 1.6 | 8.0 | 0.00 | 0.00 | 0.00 | 48 | 1011.9 |
| 20260503203514 | 25 | 204 | 1.6 | 9.7 | 0.00 | 0.00 | 0.00 | 50 | 1012.0 |
| 20260503203034 | 26 | 0 | 3.2 | 9.7 | 0.00 | 0.00 | 0.00 | 50 | 1012.0 |
| 20260503202511 | 25 | 164 | 3.2 | 8.0 | 0.00 | 0.00 | 0.00 | 50 | 1012.0 |
| 20260503202016 | 25 | 164 | 1.6 | 8.0 | 0.00 | 0.00 | 0.00 | 50 | 1012.1 |
| 20260503201529 | 25 | 163 | 3.2 | 8.0 | 0.00 | 0.00 | 0.00 | 49 | 1012.1 |
| 20260503201010 | 25 | 165 | 1.6 | 9.7 | 0.00 | 0.00 | 0.00 | 51 | 1012.3 |
| 20260503200514 | 25 | 178 | 1.6 | 9.7 | 0.00 | 0.00 | 0.00 | 50 | 1012.3 |
| 20260503200030 | 25 | 172 | 1.6 | 9.7 | 0.00 | 0.00 | 0.00 | 51 | 1012.4 |
| 20260503195511 | 24 | 172 | 3.2 | 9.7 | 0.00 | 0.00 | 0.00 | 51 | 1012.5 |
| 20260503195019 | 24 | 165 | 1.6 | 9.7 | 0.00 | 0.00 | 0.00 | 51 | 1012.5 |
| 20260503194531 | 24 | 166 | 3.2 | 9.7 | 0.00 | 0.00 | 0.00 | 51 | 1012.6 |
| 20260503194015 | 24 | 172 | 3.2 | 8.0 | 0.00 | 0.00 | 0.00 | 50 | 1012.6 |
| 20260503193513 | 24 | 202 | 1.6 | 8.0 | 0.00 | 0.00 | 0.00 | 51 | 1012.7 |
| 20260503193043 | 24 | 204 | 3.2 | 8.0 | 0.00 | 0.00 | 0.00 | 51 | 1012.7 |
| 20260503192510 | 24 | 190 | 1.6 | 4.8 | 0.00 | 0.00 | 0.00 | 52 | 1012.7 |
| 20260503192009 | 24 | 190 | 1.6 | 4.8 | 0.00 | 0.00 | 0.00 | 53 | 1012.8 |
| 20260503191559 | 23 | 190 | 1.6 | 8.0 | 0.00 | 0.00 | 0.00 | 55 | 1012.9 |
| 20260503191010 | 23 | 190 | 1.6 | 8.0 | 0.00 | 0.00 | 0.00 | 55 | 1013.0 |
| 20260503190511 | 23 | 194 | 1.6 | 8.0 | 0.00 | 0.00 | 0.00 | 57 | 1013.0 |
| 20260503190033 | 23 | 190 | 1.6 | 6.4 | 0.00 | 0.00 | 0.00 | 57 | 1013.1 |
| 20260503185510 | 23 | 189 | 1.6 | 6.4 | 0.00 | 0.00 | 0.00 | 59 | 1013.1 |
| 20260503185011 | 23 | 190 | 3.2 | 8.0 | 0.00 | 0.00 | 0.00 | 58 | 1013.1 |
| 20260503184536 | 23 | 207 | 1.6 | 8.0 | 0.00 | 0.00 | 0.00 | 58 | 1013.1 |
| 20260503184013 | 22 | 215 | 3.2 | 8.0 | 0.00 | 0.00 | 0.00 | 58 | 1013.3 |
| 20260503183520 | 22 | 223 | 1.6 | 6.4 | 0.00 | 0.00 | 0.00 | 61 | 1013.2 |
| 20260503183030 | 22 | 225 | 1.6 | 4.8 | 0.00 | 0.00 | 0.00 | 60 | 1013.3 |
| 20260503182509 | 22 | 232 | 0.0 | 6.4 | 0.00 | 0.00 | 0.00 | 61 | 1013.3 |
| 20260503182014 | 22 | 232 | 1.6 | 6.4 | 0.00 | 0.00 | 0.00 | 61 | 1013.3 |
| 20260503181544 | 22 | 233 | 1.6 | 6.4 | 0.00 | 0.00 | 0.00 | 61 | 1013.4 |
| 20260503181011 | 21 | 236 | 3.2 | 6.4 | 0.00 | 0.00 | 0.00 | 63 | 1013.4 |
| 20260503180511 | 21 | 239 | 3.2 | 6.4 | 0.00 | 0.00 | 0.00 | 66 | 1013.4 |
| 20260503180033 | 21 | 250 | 1.6 | 4.8 | 0.00 | 0.00 | 0.00 | 66 | 1013.4 |
| 20260503175513 | 21 | 251 | 1.6 | 4.8 | 0.00 | 0.00 | 0.00 | 68 | 1013.5 |
| 20260503175016 | 20 | 251 | 0.0 | 6.4 | 0.00 | 0.00 | 0.00 | 69 | 1013.5 |
| 20260503174539 | 20 | 251 | 3.2 | 6.4 | 0.00 | 0.00 | 0.00 | 69 | 1013.5 |
| 20260503174016 | 20 | 256 | 1.6 | 6.4 | 0.00 | 0.00 | 0.00 | 71 | 1013.6 |
| 20260503173512 | 20 | 279 | 0.0 | 6.4 | 0.00 | 0.00 | 0.00 | 71 | 1013.6 |
| 20260503173028 | 19 | 279 | 1.6 | 6.4 | 0.00 | 0.00 | 0.00 | 70 | 1013.7 |
| 20260503172510 | 18 | 280 | 3.2 | 6.4 | 0.00 | 0.00 | 0.00 | 69 | 1013.7 |
| 20260503172015 | 18 | 278 | 1.6 | 6.4 | 0.00 | 0.00 | 0.00 | 71 | 1013.7 |
| 20260503171530 | 18 | 279 | 1.6 | 6.4 | 0.00 | 0.00 | 0.00 | 71 | 1013.7 |
| 20260503171010 | 18 | 285 | 1.6 | 6.4 | 0.00 | 0.00 | 0.00 | 70 | 1013.8 |
| 20260503170512 | 18 | 290 | 0.0 | 4.8 | 0.00 | 0.00 | 0.00 | 72 | 1013.9 |
| 20260503151012 | 13 | 248 | 0.0 | 1.6 | 0.00 | 0.00 | 0.00 | 88 | 1014.1 |
| 20260503150512 | 12 | 0 | 0.0 | 1.6 | 0.00 | 0.00 | 0.00 | 88 | 1014.2 |
| 20260503131013 | 9 | 0 | 0.0 | 0.0 | 0.00 | 0.03 | 0.00 | 87 | 1013.9 |
| 20260503130509 | 9 | 0 | 0.0 | 0.0 | 0.00 | 0.03 | 0.00 | 87 | 1014.0 |
| 20260503110511 | 10 | 0 | 0.0 | 0.0 | 0.00 | 0.03 | 0.00 | 86 | 1014.2 |
| 20260503090510 | 11 | 0 | 0.0 | 0.0 | 0.00 | 0.03 | 0.00 | 83 | 1014.4 |
| 20260503081539 | 12 | 0 | 0.0 | 1.6 | 0.00 | 0.03 | 0.00 | 81 | 1014.4 |
| 20260503081010 | 12 | 0 | 0.0 | 0.0 | 0.00 | 0.03 | 0.00 | 81 | 1014.3 |
| 20260503080511 | 12 | 0 | 0.0 | 0.0 | 0.00 | 0.03 | 0.00 | 81 | 1014.3 |
| 20260503072514 | 13 | 0 | 0.0 | 0.0 | 0.00 | 0.03 | 0.00 | 78 | 1014.3 |
| 20260503072009 | 13 | 0 | 0.0 | 1.6 | 0.00 | 0.03 | 0.00 | 78 | 1014.3 |
| 20260503071530 | 13 | 0 | 0.0 | 1.6 | 0.00 | 0.03 | 0.00 | 78 | 1014.3 |
| 20260503071011 | 13 | 0 | 0.0 | 1.6 | 0.00 | 0.03 | 0.00 | 78 | 1014.3 |
| 20260503070516 | 13 | 0 | 0.0 | 1.6 | 0.00 | 0.03 | 0.00 | 77 | 1014.3 |
| 20260503055013 | 15 | 0 | 0.0 | 0.0 | 0.00 | 0.03 | 0.03 | 74 | 1014.2 |
| 20260503054544 | 15 | 0 | 0.0 | 0.0 | 0.00 | 0.03 | 0.03 | 74 | 1014.2 |
| 20260503054011 | 15 | 0 | 0.0 | 0.0 | 0.00 | 0.03 | 0.03 | 74 | 1014.2 |
| 20260503053511 | 15 | 0 | 0.0 | 0.0 | 0.00 | 0.03 | 0.03 | 73 | 1014.2 |
| 20260503053031 | 15 | 0 | 0.0 | 0.0 | 0.00 | 0.03 | 0.03 | 73 | 1014.3 |
| 20260503052508 | 15 | 0 | 0.0 | 0.0 | 0.00 | 0.03 | 0.03 | 74 | 1014.2 |
| 20260503052011 | 15 | 0 | 0.0 | 0.0 | 0.00 | 0.03 | 0.03 | 74 | 1014.3 |
| 20260503051528 | 15 | 0 | 0.0 | 1.6 | 0.00 | 0.03 | 0.03 | 74 | 1014.3 |
| 20260503051009 | 15 | 0 | 0.0 | 1.6 | 0.00 | 0.03 | 0.03 | 74 | 1014.3 |
| 20260503050507 | 15 | 0 | 0.0 | 0.0 | 0.00 | 0.03 | 0.03 | 75 | 1014.2 |
| 20260503050033 | 16 | 0 | 0.0 | 0.0 | 0.00 | 0.03 | 0.03 | 74 | 1014.2 |
| 20260503045510 | 16 | 0 | 0.0 | 1.6 | 0.00 | 0.03 | 0.03 | 75 | 1014.2 |
| 20260503045012 | 16 | 0 | 0.0 | 1.6 | 0.00 | 0.03 | 0.03 | 75 | 1014.2 |
| 20260503044537 | 16 | 248 | 0.0 | 0.0 | 0.00 | 0.03 | 0.03 | 75 | 1014.2 |
| 20260503044010 | 16 | 0 | 0.0 | 0.0 | 0.00 | 0.03 | 0.03 | 75 | 1014.1 |
| 20260503043510 | 16 | 0 | 0.0 | 1.6 | 0.00 | 0.03 | 0.03 | 75 | 1014.0 |
| 20260503043038 | 16 | 0 | 0.0 | 1.6 | 0.00 | 0.03 | 0.03 | 75 | 1014.0 |
| 20260503042509 | 16 | 0 | 0.0 | 1.6 | 0.00 | 0.03 | 0.03 | 74 | 1014.0 |
| 20260503042016 | 17 | 0 | 0.0 | 1.6 | 0.00 | 0.03 | 0.03 | 74 | 1014.0 |
| 20260503041528 | 17 | 0 | 0.0 | 1.6 | 0.00 | 0.03 | 0.03 | 74 | 1013.9 |
| 20260503041008 | 17 | 0 | 0.0 | 3.2 | 0.00 | 0.03 | 0.03 | 73 | 1013.9 |
| 20260503040514 | 17 | 0 | 0.0 | 3.2 | 0.00 | 0.03 | 0.03 | 73 | 1013.9 |
| 20260503040033 | 17 | 248 | 0.0 | 1.6 | 0.00 | 0.03 | 0.03 | 73 | 1013.8 |
| 20260503035508 | 17 | 0 | 0.0 | 3.2 | 0.00 | 0.03 | 0.03 | 72 | 1013.7 |
| 20260503035012 | 18 | 0 | 0.0 | 3.2 | 0.00 | 0.03 | 0.03 | 72 | 1013.7 |
| 20260503034528 | 18 | 0 | 0.0 | 3.2 | 0.00 | 0.03 | 0.03 | 71 | 1013.7 |
| 20260503034007 | 18 | 0 | 0.0 | 1.6 | 0.00 | 0.03 | 0.03 | 71 | 1013.5 |
| 20260503033510 | 18 | 0 | 0.0 | 0.0 | 0.00 | 0.03 | 0.03 | 70 | 1013.5 |
| 20260503033028 | 18 | 0 | 0.0 | 0.0 | 0.00 | 0.03 | 0.03 | 69 | 1013.4 |
| 20260503032510 | 19 | 0 | 0.0 | 1.6 | 0.00 | 0.03 | 0.03 | 69 | 1013.3 |
| 20260503032012 | 19 | 0 | 0.0 | 1.6 | 0.00 | 0.03 | 0.03 | 69 | 1013.3 |
| 20260503031527 | 19 | 0 | 0.0 | 1.6 | 0.00 | 0.03 | 0.03 | 68 | 1013.2 |
| 20260503031008 | 20 | 0 | 0.0 | 1.6 | 0.00 | 0.03 | 0.03 | 68 | 1013.2 |
| 20260503030508 | 20 | 0 | 0.0 | 1.6 | 0.00 | 0.03 | 0.03 | 67 | 1013.1 |
| 20260503030035 | 20 | 0 | 0.0 | 3.2 | 0.00 | 0.03 | 0.03 | 66 | 1013.1 |
| 20260503025509 | 20 | 0 | 0.0 | 4.8 | 0.00 | 0.03 | 0.03 | 65 | 1013.1 |
| 20260503025009 | 21 | 0 | 0.0 | 4.8 | 0.00 | 0.03 | 0.03 | 63 | 1013.0 |
| 20260503024530 | 21 | 0 | 0.0 | 3.2 | 0.00 | 0.03 | 0.03 | 65 | 1012.9 |
| 20260503024011 | 21 | 0 | 0.0 | 3.2 | 0.00 | 0.03 | 0.03 | 62 | 1012.9 |
| 20260503023509 | 21 | 248 | 0.0 | 3.2 | 0.00 | 0.03 | 0.03 | 63 | 1012.9 |
| 20260503023028 | 21 | 0 | 0.0 | 3.2 | 0.00 | 0.03 | 0.03 | 61 | 1012.9 |
| 20260503022508 | 21 | 0 | 0.0 | 0.0 | 0.00 | 0.03 | 0.03 | 60 | 1012.8 |
| 20260503022013 | 21 | 0 | 0.0 | 1.6 | 0.00 | 0.03 | 0.03 | 60 | 1012.8 |
| 20260503021528 | 21 | 0 | 0.0 | 6.4 | 0.00 | 0.03 | 0.03 | 60 | 1012.8 |
| 20260503021010 | 21 | 248 | 0.0 | 6.4 | 0.00 | 0.03 | 0.03 | 60 | 1012.8 |
| 20260503020510 | 22 | 251 | 1.6 | 3.2 | 0.00 | 0.03 | 0.03 | 60 | 1012.8 |
| 20260503020028 | 22 | 0 | 0.0 | 3.2 | 0.00 | 0.03 | 0.03 | 60 | 1012.7 |
| 20260503015514 | 22 | 251 | 0.0 | 3.2 | 0.00 | 0.03 | 0.03 | 60 | 1012.7 |
| 20260503015008 | 22 | 0 | 0.0 | 4.8 | 0.00 | 0.03 | 0.03 | 60 | 1012.7 |
| 20260503014528 | 22 | 0 | 0.0 | 4.8 | 0.00 | 0.03 | 0.03 | 59 | 1012.6 |
| 20260503014011 | 22 | 251 | 0.0 | 6.4 | 0.00 | 0.03 | 0.03 | 59 | 1012.7 |
| 20260503013508 | 22 | 0 | 0.0 | 6.4 | 0.00 | 0.03 | 0.03 | 59 | 1012.7 |
| 20260503013038 | 23 | 250 | 0.0 | 6.4 | 0.00 | 0.03 | 0.03 | 59 | 1012.7 |
| 20260503012509 | 23 | 0 | 0.0 | 6.4 | 0.00 | 0.03 | 0.03 | 58 | 1012.7 |
| 20260503012016 | 23 | 251 | 1.6 | 6.4 | 0.00 | 0.03 | 0.03 | 58 | 1012.7 |
| 20260503011531 | 23 | 253 | 1.6 | 6.4 | 0.00 | 0.03 | 0.03 | 59 | 1012.7 |
| 20260503011010 | 23 | 255 | 1.6 | 6.4 | 0.00 | 0.03 | 0.03 | 59 | 1012.7 |
| 20260503010514 | 23 | 0 | 0.0 | 4.8 | 0.00 | 0.03 | 0.03 | 59 | 1012.7 |
| 20260503010030 | 23 | 178 | 1.6 | 4.8 | 0.00 | 0.03 | 0.03 | 60 | 1012.7 |
| 20260503005510 | 23 | 0 | 0.0 | 4.8 | 0.00 | 0.03 | 0.03 | 60 | 1012.7 |
| 20260503005010 | 23 | 0 | 0.0 | 6.4 | 0.00 | 0.03 | 0.03 | 60 | 1012.7 |
| 20260503004535 | 23 | 182 | 0.0 | 6.4 | 0.00 | 0.03 | 0.03 | 59 | 1012.8 |
| 20260503004009 | 23 | 0 | 1.6 | 6.4 | 0.00 | 0.03 | 0.03 | 59 | 1012.8 |
| 20260503003508 | 23 | 0 | 0.0 | 6.4 | 0.00 | 0.03 | 0.03 | 58 | 1012.8 |
| 20260503003042 | 23 | 194 | 3.2 | 6.4 | 0.00 | 0.03 | 0.03 | 58 | 1012.9 |
| 20260503002509 | 23 | 128 | 1.6 | 12.9 | 0.00 | 0.03 | 0.03 | 58 | 1012.9 |
| 20260503002009 | 23 | 0 | 3.2 | 12.9 | 0.00 | 0.03 | 0.03 | 57 | 1012.9 |
| 20260503001536 | 23 | 168 | 1.6 | 9.7 | 0.00 | 0.03 | 0.03 | 58 | 1012.9 |
| 20260503001008 | 23 | 0 | 1.6 | 9.7 | 0.00 | 0.03 | 0.03 | 58 | 1012.9 |
| 20260503000508 | 23 | 225 | 1.6 | 9.7 | 0.00 | 0.03 | 0.03 | 57 | 1013.0 |
| 20260503000031 | 23 | 137 | 0.0 | 8.0 | 0.00 | 0.03 | 0.03 | 57 | 1013.0 |
| 20260502235511 | 23 | 0 | 1.6 | 9.7 | 0.00 | 0.03 | 0.03 | 56 | 1013.0 |
| 20260502235015 | 23 | 148 | 1.6 | 9.7 | 0.00 | 0.03 | 0.03 | 56 | 1013.1 |
| 20260502234540 | 23 | 221 | 1.6 | 8.0 | 0.00 | 0.03 | 0.03 | 58 | 1013.1 |
| 20260502234009 | 23 | 221 | 1.6 | 8.0 | 0.00 | 0.03 | 0.03 | 58 | 1013.2 |
| 20260502233512 | 23 | 285 | 1.6 | 9.7 | 0.00 | 0.03 | 0.03 | 59 | 1013.2 |
| 20260502233038 | 23 | 291 | 1.6 | 9.7 | 0.00 | 0.03 | 0.03 | 59 | 1013.3 |
| 20260502232508 | 23 | 218 | 1.6 | 9.7 | 0.00 | 0.03 | 0.03 | 59 | 1013.5 |
| 20260502232011 | 23 | 234 | 3.2 | 11.3 | 0.00 | 0.03 | 0.03 | 58 | 1013.4 |
| 20260502231528 | 23 | 0 | 1.6 | 11.3 | 0.00 | 0.03 | 0.03 | 59 | 1013.5 |
| 20260502231008 | 23 | 271 | 1.6 | 11.3 | 0.00 | 0.03 | 0.03 | 59 | 1013.5 |
| 20260502230513 | 23 | 223 | 3.2 | 8.0 | 0.00 | 0.03 | 0.03 | 59 | 1013.6 |
| 20260502230034 | 23 | 143 | 3.2 | 11.3 | 0.00 | 0.03 | 0.03 | 60 | 1013.7 |
| 20260502225509 | 23 | 0 | 3.2 | 11.3 | 0.00 | 0.03 | 0.03 | 58 | 1013.7 |
| 20260502225011 | 23 | 340 | 0.0 | 9.7 | 0.00 | 0.03 | 0.03 | 60 | 1013.8 |
| 20260502224528 | 23 | 212 | 1.6 | 9.7 | 0.00 | 0.03 | 0.03 | 59 | 1013.8 |
| 20260502224013 | 23 | 211 | 4.8 | 9.7 | 0.00 | 0.03 | 0.03 | 57 | 1013.9 |
| 20260502223512 | 23 | 302 | 0.0 | 6.4 | 0.00 | 0.03 | 0.03 | 61 | 1014.0 |
| 20260502223040 | 23 | 302 | 1.6 | 9.7 | 0.00 | 0.03 | 0.03 | 61 | 1014.0 |
| 20260502222510 | 23 | 304 | 1.6 | 9.7 | 0.00 | 0.03 | 0.03 | 61 | 1014.1 |
| 20260502222012 | 23 | 186 | 3.2 | 11.3 | 0.00 | 0.03 | 0.03 | 60 | 1014.1 |
| 20260502221531 | 23 | 257 | 1.6 | 11.3 | 0.00 | 0.03 | 0.03 | 59 | 1014.2 |
| 20260502221010 | 23 | 0 | 0.0 | 12.9 | 0.00 | 0.03 | 0.03 | 62 | 1014.2 |
| 20260502220514 | 22 | 336 | 3.2 | 12.9 | 0.00 | 0.03 | 0.03 | 62 | 1014.3 |
| 20260502220028 | 22 | 90 | 1.6 | 9.7 | 0.00 | 0.03 | 0.03 | 64 | 1014.4 |
| 20260502215513 | 22 | 198 | 3.2 | 9.7 | 0.00 | 0.03 | 0.03 | 62 | 1014.4 |
| 20260502215011 | 22 | 281 | 1.6 | 9.7 | 0.00 | 0.03 | 0.03 | 62 | 1014.5 |
| 20260502214530 | 22 | 213 | 3.2 | 14.5 | 0.00 | 0.03 | 0.03 | 61 | 1014.5 |
| 20260502214007 | 22 | 207 | 4.8 | 14.5 | 0.00 | 0.03 | 0.03 | 61 | 1014.4 |
| 20260502213513 | 22 | 207 | 3.2 | 9.7 | 0.00 | 0.03 | 0.03 | 60 | 1014.5 |
| 20260502213029 | 22 | 225 | 3.2 | 8.0 | 0.00 | 0.03 | 0.03 | 61 | 1014.5 |
| 20260502212511 | 22 | 242 | 1.6 | 8.0 | 0.00 | 0.03 | 0.03 | 62 | 1014.6 |